createdAt,value
2023-04-23T00:00:10.023Z,100546.06
2023-04-23T00:01:10.649Z,100547.06
2023-04-23T00:02:11.531Z,100548.30
2023-04-23T00:03:12.306Z,100549.84
2023-04-23T00:04:13.154Z,100551.01
2023-04-23T00:05:13.255Z,100551.45
2023-04-23T00:06:14.168Z,100552.45
2023-04-23T00:07:14.745Z,100553.28
2023-04-23T00:08:16.666Z,100553.21
2023-04-23T00:09:15.696Z,100553.14
2023-04-23T00:10:17.290Z,100553.38
2023-04-23T00:10:25.905Z,100553.15
2023-04-23T00:11:26.532Z,100553.47
2023-04-23T00:12:27.341Z,100553.75
2023-04-23T00:13:27.496Z,100553.52
2023-04-23T00:14:28.084Z,100553.28
2023-04-23T00:15:29.710Z,100553.09
2023-04-23T00:16:29.568Z,100552.90
2023-04-23T00:17:30.205Z,100553.08
2023-04-23T00:18:30.841Z,100552.28
2023-04-23T00:19:31.438Z,100552.13
2023-04-23T00:20:32.091Z,100551.59
2023-04-23T00:21:32.800Z,100551.22
2023-04-23T00:22:34.426Z,100551.35
2023-04-23T00:22:43.028Z,100551.23
2023-04-23T00:23:43.617Z,100551.03
2023-04-23T00:24:44.195Z,100550.75
2023-04-23T00:25:44.737Z,100550.64
2023-04-23T00:26:46.296Z,100550.28
2023-04-23T00:27:45.487Z,100549.58
2023-04-23T00:28:47.009Z,100549.64
2023-04-23T00:29:46.643Z,100548.87
2023-04-23T00:30:47.200Z,100547.97
2023-04-23T00:31:47.334Z,100547.47
2023-04-23T00:32:47.953Z,100546.77
2023-04-23T00:32:56.644Z,100546.99
2023-04-23T00:33:57.179Z,100546.80
2023-04-23T00:34:57.703Z,100545.80
2023-04-23T00:35:58.982Z,100545.09
2023-04-23T00:36:58.485Z,100544.47
2023-04-23T00:37:59.459Z,100543.95
2023-04-23T00:39:00.948Z,100542.94
2023-04-23T00:40:01.488Z,100542.73
2023-04-23T00:41:01.059Z,100541.98
2023-04-23T00:42:01.966Z,100541.73
2023-04-23T00:43:02.529Z,100541.50
2023-04-23T00:44:02.510Z,100541.13
2023-04-23T00:44:17.613Z,100540.33
2023-04-23T00:45:18.004Z,100540.08
2023-04-23T00:46:21.798Z,100539.92
2023-04-23T00:47:19.320Z,100539.55
2023-04-23T00:48:19.889Z,100539.50
2023-04-23T00:49:20.753Z,100538.92
2023-04-23T00:50:21.396Z,100539.23
2023-04-23T00:51:21.931Z,100538.52
2023-04-23T00:52:22.470Z,100537.80
2023-04-23T00:53:22.522Z,100537.02
2023-04-23T00:54:22.871Z,100536.52
2023-04-23T00:55:23.461Z,100535.72
2023-04-23T00:55:33.636Z,100534.84
2023-04-23T00:56:34.382Z,100534.41
2023-04-23T00:57:34.906Z,100533.37
2023-04-23T00:58:35.360Z,100532.41
2023-04-23T00:59:36.885Z,100531.45
2023-04-23T01:00:36.007Z,100530.31
2023-04-23T01:01:36.149Z,100529.19
2023-04-23T01:02:36.945Z,100527.98
2023-04-23T01:03:37.447Z,100526.13
2023-04-23T01:04:37.443Z,100524.66
2023-04-23T01:05:37.715Z,100522.94
2023-04-23T01:06:38.200Z,100521.17
2023-04-23T01:06:48.454Z,100519.80
2023-04-23T01:07:49.115Z,100518.37
2023-04-23T01:08:49.951Z,100516.41
2023-04-23T01:09:50.754Z,100514.64
2023-04-23T01:10:51.242Z,100512.59
2023-04-23T01:11:51.992Z,100510.73
2023-04-23T01:12:52.560Z,100508.63
2023-04-23T01:13:52.800Z,100506.66
2023-04-23T01:14:53.397Z,100504.30
2023-04-23T01:15:55.055Z,100501.47
2023-04-23T01:16:55.024Z,100498.98
2023-04-23T01:17:55.851Z,100496.58
2023-04-23T01:18:07.464Z,100493.59
2023-04-23T01:19:07.968Z,100490.93
2023-04-23T01:20:09.609Z,100488.52
2023-04-23T01:21:09.179Z,100485.75
2023-04-23T01:22:10.992Z,100482.84
2023-04-23T01:23:10.579Z,100480.08
2023-04-23T01:24:11.216Z,100477.38
2023-04-23T01:25:11.855Z,100474.93
2023-04-23T01:26:12.422Z,100472.09
2023-04-23T01:27:13.242Z,100470.08
2023-04-23T01:28:13.990Z,100467.50
2023-04-23T01:29:14.995Z,100465.60
2023-04-23T01:29:24.117Z,100462.86
2023-04-23T01:30:23.924Z,100460.63
2023-04-23T01:31:24.697Z,100458.52
2023-04-23T01:32:25.305Z,100456.12
2023-04-23T01:33:25.376Z,100453.88
2023-04-23T01:34:26.363Z,100451.89
2023-04-23T01:35:26.974Z,100448.95
2023-04-23T01:36:27.545Z,100446.96
2023-04-23T01:37:28.140Z,100444.64
2023-04-23T01:38:28.784Z,100442.12
2023-04-23T01:39:29.621Z,100439.55
2023-04-23T01:40:30.438Z,100437.14
2023-04-23T01:40:39.068Z,100434.39
2023-04-23T01:41:39.504Z,100431.31
2023-04-23T01:42:40.774Z,100428.57
2023-04-23T01:43:40.375Z,100425.61
2023-04-23T01:44:41.264Z,100423.08
2023-04-23T01:45:41.571Z,100420.28
2023-04-23T01:46:42.175Z,100418.42
2023-04-23T01:47:42.784Z,100415.97
2023-04-23T01:48:43.651Z,100413.22
2023-04-23T01:49:44.610Z,100410.51
2023-04-23T01:50:44.009Z,100408.14
2023-04-23T01:50:55.627Z,100406.11
2023-04-23T01:51:55.834Z,100403.91
2023-04-23T01:52:56.570Z,100402.21
2023-04-23T01:53:57.174Z,100400.52
2023-04-23T01:54:57.704Z,100399.16
2023-04-23T01:55:58.687Z,100397.30
2023-04-23T01:56:59.275Z,100395.61
2023-04-23T01:57:59.784Z,100393.75
2023-04-23T01:59:00.354Z,100392.61
2023-04-23T02:00:00.978Z,100391.38
2023-04-23T02:01:01.795Z,100389.61
2023-04-23T02:01:10.580Z,100387.92
2023-04-23T02:02:10.935Z,100386.70
2023-04-23T02:03:11.140Z,100385.17
2023-04-23T02:04:11.747Z,100383.31
2023-04-23T02:05:12.277Z,100382.13
2023-04-23T02:06:12.926Z,100380.19
2023-04-23T02:07:13.512Z,100378.48
2023-04-23T02:08:14.175Z,100376.45
2023-04-23T02:09:14.768Z,100374.42
2023-04-23T02:10:15.396Z,100372.98
2023-04-23T02:11:15.497Z,100371.67
2023-04-23T02:12:16.094Z,100369.98
2023-04-23T02:13:16.664Z,100368.53
2023-04-23T02:13:26.413Z,100366.83
2023-04-23T02:14:27.300Z,100365.77
2023-04-23T02:15:27.825Z,100364.23
2023-04-23T02:16:28.607Z,100362.41
2023-04-23T02:17:29.268Z,100361.31
2023-04-23T02:18:29.630Z,100360.42
2023-04-23T02:19:31.526Z,100359.65
2023-04-23T02:20:31.877Z,100358.79
2023-04-23T02:21:31.531Z,100357.64
2023-04-23T02:22:31.631Z,100356.92
2023-04-23T02:23:32.421Z,100356.61
2023-04-23T02:24:33.293Z,100356.52
2023-04-23T02:25:34.152Z,100356.27
2023-04-23T02:25:51.458Z,100355.66
2023-04-23T02:26:47.454Z,100354.86
2023-04-23T02:27:47.998Z,100354.77
2023-04-23T02:28:48.460Z,100354.67
2023-04-23T02:29:48.872Z,100354.59
2023-04-23T02:30:49.486Z,100354.38
2023-04-23T02:31:50.701Z,100353.69
2023-04-23T02:32:49.930Z,100353.30
2023-04-23T02:33:50.219Z,100352.91
2023-04-23T02:34:50.927Z,100352.56
2023-04-23T02:35:50.992Z,100352.81
2023-04-23T02:36:51.945Z,100353.03
2023-04-23T02:37:52.436Z,100352.52
2023-04-23T02:38:01.029Z,100352.26
2023-04-23T02:39:01.556Z,100351.75
2023-04-23T02:40:01.706Z,100351.49
2023-04-23T02:41:02.419Z,100351.23
2023-04-23T02:42:02.435Z,100351.16
2023-04-23T02:43:02.446Z,100350.48
2023-04-23T02:44:02.459Z,100350.14
2023-04-23T02:45:02.991Z,100349.80
2023-04-23T02:46:05.011Z,100349.21
2023-04-23T02:47:04.557Z,100348.70
2023-04-23T02:48:05.132Z,100348.12
2023-04-23T02:49:05.142Z,100347.56
2023-04-23T02:49:16.273Z,100346.98
2023-04-23T02:50:17.216Z,100346.73
2023-04-23T02:51:17.445Z,100346.09
2023-04-23T02:52:18.380Z,100345.27
2023-04-23T02:53:18.945Z,100344.55
2023-04-23T02:54:19.775Z,100344.01
2023-04-23T02:55:20.763Z,100343.90
2023-04-23T02:56:21.510Z,100343.45
2023-04-23T02:57:21.741Z,100342.41
2023-04-23T02:58:22.739Z,100342.13
2023-04-23T02:59:23.192Z,100342.05
2023-04-23T03:00:24.202Z,100341.52
2023-04-23T03:00:33.801Z,100340.91
2023-04-23T03:01:34.394Z,100340.70
2023-04-23T03:02:35.076Z,100340.34
2023-04-23T03:03:35.810Z,100339.64
2023-04-23T03:04:35.825Z,100339.66
2023-04-23T03:05:36.862Z,100339.46
2023-04-23T03:06:35.970Z,100338.72
2023-04-23T03:07:37.650Z,100337.84
2023-04-23T03:08:36.763Z,100336.39
2023-04-23T03:09:38.112Z,100335.52
2023-04-23T03:10:37.744Z,100334.00
2023-04-23T03:11:38.599Z,100332.80
2023-04-23T03:12:02.268Z,100331.38
2023-04-23T03:13:03.251Z,100329.83
2023-04-23T03:14:03.441Z,100328.87
2023-04-23T03:15:04.067Z,100327.16
2023-04-23T03:16:04.728Z,100325.55
2023-04-23T03:17:05.616Z,100323.84
2023-04-23T03:18:06.169Z,100322.88
2023-04-23T03:19:06.821Z,100321.34
2023-04-23T03:20:07.449Z,100319.58
2023-04-23T03:21:07.803Z,100318.11
2023-04-23T03:22:07.864Z,100316.14
2023-04-23T03:23:08.347Z,100314.00
2023-04-23T03:24:08.931Z,100312.27
2023-04-23T03:24:23.576Z,100310.54
2023-04-23T03:25:23.787Z,100308.95
2023-04-23T03:26:23.925Z,100307.17
2023-04-23T03:27:24.614Z,100306.09
2023-04-23T03:28:25.266Z,100305.30
2023-04-23T03:29:25.972Z,100303.95
2023-04-23T03:30:26.607Z,100302.31
2023-04-23T03:31:27.407Z,100301.55
2023-04-23T03:32:27.956Z,100299.81
2023-04-23T03:33:28.745Z,100297.80
2023-04-23T03:34:29.738Z,100296.36
2023-04-23T03:34:40.072Z,100294.55
2023-04-23T03:35:39.954Z,100292.87
2023-04-23T03:36:40.710Z,100291.69
2023-04-23T03:37:41.003Z,100290.52
2023-04-23T03:38:41.536Z,100288.88
2023-04-23T03:39:42.235Z,100287.15
2023-04-23T03:40:43.196Z,100285.98
2023-04-23T03:41:44.189Z,100284.42
2023-04-23T03:42:44.343Z,100282.70
2023-04-23T03:43:44.315Z,100281.52
2023-04-23T03:44:45.214Z,100279.70
2023-04-23T03:45:45.876Z,100278.95
2023-04-23T03:45:56.560Z,100277.39
2023-04-23T03:46:57.159Z,100276.42
2023-04-23T03:47:57.982Z,100274.91
2023-04-23T03:48:58.593Z,100273.94
2023-04-23T03:49:59.575Z,100272.94
2023-04-23T03:51:00.251Z,100271.89
2023-04-23T03:52:01.168Z,100271.10
2023-04-23T03:53:01.194Z,100270.14
2023-04-23T03:54:01.353Z,100269.27
2023-04-23T03:55:02.043Z,100268.38
2023-04-23T03:56:02.652Z,100268.34
2023-04-23T03:57:02.869Z,100266.76
2023-04-23T03:58:03.493Z,100265.96
2023-04-23T03:58:14.242Z,100264.33
2023-04-23T03:59:14.931Z,100264.03
2023-04-23T04:00:15.671Z,100262.78
2023-04-23T04:01:16.011Z,100261.98
2023-04-23T04:02:16.870Z,100261.14
2023-04-23T04:03:17.461Z,100260.17
2023-04-23T04:04:18.166Z,100259.17
2023-04-23T04:05:18.432Z,100258.37
2023-04-23T04:06:18.382Z,100257.40
2023-04-23T04:07:18.573Z,100255.64
2023-04-23T04:08:18.767Z,100254.84
2023-04-23T04:09:19.315Z,100253.67
2023-04-23T04:10:20.259Z,100252.45
2023-04-23T04:10:28.977Z,100214.23
2023-04-23T04:11:29.382Z,100215.92
2023-04-23T04:12:29.517Z,100216.49
2023-04-23T04:13:29.605Z,100217.63
2023-04-23T04:14:29.727Z,100218.16
2023-04-23T04:15:29.739Z,100218.45
2023-04-23T04:16:30.107Z,100218.61
2023-04-23T04:17:30.773Z,100219.08
2023-04-23T04:18:30.695Z,100218.98
2023-04-23T04:19:30.862Z,100218.48
2023-04-23T04:20:31.500Z,100218.39
2023-04-23T04:21:32.025Z,100217.92
2023-04-23T04:22:32.747Z,100217.50
2023-04-23T04:22:42.435Z,100216.82
2023-04-23T04:23:43.284Z,100216.73
2023-04-23T04:24:44.229Z,100216.39
2023-04-23T04:25:44.829Z,100216.47
2023-04-23T04:26:45.453Z,100216.34
2023-04-23T04:27:46.064Z,100216.34
2023-04-23T04:28:46.096Z,100216.52
2023-04-23T04:29:47.072Z,100216.86
2023-04-23T04:30:47.619Z,100216.69
2023-04-23T04:31:48.390Z,100217.20
2023-04-23T04:32:48.634Z,100216.98
2023-04-23T04:33:48.659Z,100217.14
2023-04-23T04:33:57.882Z,100217.31
2023-04-23T04:34:58.575Z,100217.23
2023-04-23T04:35:58.717Z,100216.91
2023-04-23T04:36:59.302Z,100216.31
2023-04-23T04:38:00.989Z,100215.88
2023-04-23T04:39:00.672Z,100215.20
2023-04-23T04:40:01.174Z,100214.45
2023-04-23T04:41:01.377Z,100214.95
2023-04-23T04:42:02.080Z,100214.44
2023-04-23T04:43:02.848Z,100214.78
2023-04-23T04:44:03.637Z,100215.50
2023-04-23T04:45:03.927Z,100216.09
2023-04-23T04:45:21.640Z,100216.69
2023-04-23T04:46:22.345Z,100217.31
2023-04-23T04:47:22.689Z,100218.08
2023-04-23T04:48:22.861Z,100219.09
2023-04-23T04:49:23.425Z,100220.03
2023-04-23T04:50:24.147Z,100220.47
2023-04-23T04:51:25.006Z,100221.27
2023-04-23T04:52:25.886Z,100221.61
2023-04-23T04:53:26.392Z,100222.50
2023-04-23T04:54:27.228Z,100223.36
2023-04-23T04:55:27.336Z,100224.16
2023-04-23T04:56:27.853Z,100225.60
2023-04-23T04:57:28.795Z,100226.70
2023-04-23T04:57:37.473Z,100227.48
2023-04-23T04:58:37.718Z,100228.83
2023-04-23T04:59:38.572Z,100229.72
2023-04-23T05:00:38.761Z,100230.99
2023-04-23T05:01:39.451Z,100232.68
2023-04-23T05:02:39.816Z,100233.86
2023-04-23T05:03:40.409Z,100235.88
2023-04-23T05:04:41.443Z,100237.11
2023-04-23T05:05:41.903Z,100239.20
2023-04-23T05:06:42.518Z,100241.15
2023-04-23T05:07:43.073Z,100242.61
2023-04-23T05:08:43.670Z,100244.23
2023-04-23T05:08:53.827Z,100247.00
2023-04-23T05:09:54.549Z,100248.77
2023-04-23T05:10:55.331Z,100250.69
2023-04-23T05:11:55.925Z,100253.28
2023-04-23T05:12:57.090Z,100255.20
2023-04-23T05:13:56.690Z,100257.63
2023-04-23T05:14:58.217Z,100259.95
2023-04-23T05:15:58.183Z,100262.68
2023-04-23T05:16:59.891Z,100265.23
2023-04-23T05:17:59.468Z,100268.10
2023-04-23T05:18:59.921Z,100271.31
2023-04-23T05:20:00.535Z,100274.11
2023-04-23T05:20:09.609Z,100277.33
2023-04-23T05:21:10.372Z,100280.46
2023-04-23T05:22:10.548Z,100283.50
2023-04-23T05:23:11.417Z,100286.49
2023-04-23T05:24:12.295Z,100289.59
2023-04-23T05:25:12.974Z,100292.42
2023-04-23T05:26:13.589Z,100295.13
2023-04-23T05:27:14.272Z,100298.73
2023-04-23T05:28:15.122Z,100302.67
2023-04-23T05:29:16.814Z,100308.29
2023-04-23T05:30:16.501Z,100314.63
2023-04-23T05:30:25.137Z,100320.68
2023-04-23T05:31:27.039Z,100326.86
2023-04-23T05:32:26.165Z,100333.31
2023-04-23T05:33:30.616Z,100340.77
2023-04-23T05:34:27.183Z,100347.43
2023-04-23T05:35:27.757Z,100353.65
2023-04-23T05:36:29.251Z,100360.00
2023-04-23T05:37:29.000Z,100366.22
2023-04-23T05:38:30.917Z,100372.66
2023-04-23T05:39:30.491Z,100377.68
2023-04-23T05:40:31.012Z,100382.97
2023-04-23T05:41:31.510Z,100388.27
2023-04-23T05:41:45.589Z,100392.25
2023-04-23T05:42:46.367Z,100396.55
2023-04-23T05:43:46.392Z,100400.89
2023-04-23T05:44:47.197Z,100405.44
2023-04-23T05:45:47.366Z,100410.56
2023-04-23T05:46:48.024Z,100417.03
2023-04-23T05:47:48.083Z,100423.38
2023-04-23T05:48:48.050Z,100429.27
2023-04-23T05:49:48.561Z,100435.16
2023-04-23T05:50:48.995Z,100441.02
2023-04-23T05:51:49.586Z,100448.02
2023-04-23T05:52:50.219Z,100455.34
2023-04-23T05:52:59.410Z,100463.45
2023-04-23T05:53:59.842Z,100470.77
2023-04-23T05:55:00.527Z,100478.28
2023-04-23T05:56:00.554Z,100486.17
2023-04-23T05:57:01.037Z,100494.34
2023-04-23T05:58:01.832Z,100501.44
2023-04-23T05:59:02.820Z,100508.91
2023-04-23T06:00:03.494Z,100515.95
2023-04-23T06:01:03.497Z,100521.72
2023-04-23T06:02:03.576Z,100527.44
2023-04-23T06:03:04.207Z,100531.86
2023-04-23T06:04:05.205Z,100535.22
2023-04-23T06:05:05.959Z,100538.37
2023-04-23T06:06:06.345Z,100541.15
2023-04-23T06:06:17.445Z,100544.09
2023-04-23T06:07:17.633Z,100546.27
2023-04-23T06:08:18.465Z,100548.25
2023-04-23T06:09:18.975Z,100550.52
2023-04-23T06:10:19.856Z,100552.02
2023-04-23T06:11:20.482Z,100553.16
2023-04-23T06:12:21.073Z,100554.41
2023-04-23T06:13:21.741Z,100554.66
2023-04-23T06:14:22.073Z,100554.51
2023-04-23T06:15:22.744Z,100554.67
2023-04-23T06:16:23.364Z,100554.73
2023-04-23T06:17:23.988Z,100554.34
2023-04-23T06:17:37.544Z,100554.00
2023-04-23T06:18:38.867Z,100553.52
2023-04-23T06:19:38.736Z,100552.65
2023-04-23T06:20:39.466Z,100552.58
2023-04-23T06:21:40.480Z,100551.96
2023-04-23T06:22:40.050Z,100550.83
2023-04-23T06:23:41.657Z,100550.12
2023-04-23T06:24:41.552Z,100549.14
2023-04-23T06:25:41.771Z,100548.09
2023-04-23T06:26:42.420Z,100547.36
2023-04-23T06:27:43.357Z,100546.75
2023-04-23T06:27:56.517Z,100546.45
2023-04-23T06:28:56.791Z,100545.55
2023-04-23T06:29:57.494Z,100544.65
2023-04-23T06:30:57.698Z,100544.50
2023-04-23T06:31:58.243Z,100543.95
2023-04-23T06:32:58.821Z,100543.64
2023-04-23T06:33:59.455Z,100543.32
2023-04-23T06:35:02.065Z,100543.30
2023-04-23T06:35:59.554Z,100543.41
2023-04-23T06:37:00.202Z,100543.20
2023-04-23T06:38:01.064Z,100542.94
2023-04-23T06:38:08.817Z,100542.37
2023-04-23T06:39:09.582Z,100542.16
2023-04-23T06:40:10.110Z,100542.02
2023-04-23T06:41:10.800Z,100541.33
2023-04-23T06:42:10.989Z,100539.96
2023-04-23T06:43:12.604Z,100539.56
2023-04-23T06:44:11.863Z,100538.30
2023-04-23T06:45:12.671Z,100537.05
2023-04-23T06:46:13.104Z,100535.91
2023-04-23T06:47:13.653Z,100534.27
2023-04-23T06:48:13.994Z,100532.28
2023-04-23T06:49:14.657Z,100530.85
2023-04-23T06:50:14.660Z,100529.33
2023-04-23T06:51:15.557Z,100528.43
2023-04-23T06:52:16.447Z,100527.31
2023-04-23T06:52:25.385Z,100526.19
2023-04-23T06:53:26.334Z,100525.41
2023-04-23T06:54:26.412Z,100524.70
2023-04-23T06:55:26.728Z,100523.44
2023-04-23T06:56:27.505Z,100522.64
2023-04-23T06:57:27.547Z,100521.69
2023-04-23T06:58:27.928Z,100521.14
2023-04-23T06:59:28.412Z,100520.46
2023-04-23T07:00:28.435Z,100519.90
2023-04-23T07:01:29.072Z,100519.56
2023-04-23T07:02:29.463Z,100520.08
2023-04-23T07:02:42.362Z,100520.89
2023-04-23T07:03:44.925Z,100521.45
2023-04-23T07:04:43.470Z,100521.83
2023-04-23T07:05:43.854Z,100523.18
2023-04-23T07:06:44.636Z,100524.33
2023-04-23T07:07:46.060Z,100525.70
2023-04-23T07:08:45.720Z,100527.40
2023-04-23T07:09:46.477Z,100528.37
2023-04-23T07:10:47.156Z,100530.00
2023-04-23T07:11:47.779Z,100531.55
2023-04-23T07:12:47.931Z,100532.97
2023-04-23T07:12:59.690Z,100534.83
2023-04-23T07:13:59.914Z,100536.89
2023-04-23T07:15:00.877Z,100540.09
2023-04-23T07:16:01.642Z,100544.91
2023-04-23T07:17:02.652Z,100551.79
2023-04-23T07:18:03.442Z,100560.12
2023-04-23T07:19:03.422Z,100568.55
2023-04-23T07:20:04.201Z,100578.39
2023-04-23T07:21:04.382Z,100587.88
2023-04-23T07:22:05.458Z,100598.89
2023-04-23T07:23:04.673Z,100610.59
2023-04-23T07:24:05.592Z,100622.81
2023-04-23T07:24:17.755Z,100633.89
2023-04-23T07:25:17.795Z,100645.24
2023-04-23T07:26:19.586Z,100655.54
2023-04-23T07:27:19.342Z,100665.69
2023-04-23T07:28:19.598Z,100675.06
2023-04-23T07:29:20.317Z,100683.50
2023-04-23T07:30:20.848Z,100691.37
2023-04-23T07:31:21.061Z,100698.45
2023-04-23T07:32:21.847Z,100704.64
2023-04-23T07:33:22.606Z,100710.41
2023-04-23T07:34:23.548Z,100715.58
2023-04-23T07:35:24.156Z,100719.48
2023-04-23T07:35:34.750Z,100687.32
2023-04-23T07:36:35.597Z,100693.45
2023-04-23T07:37:36.250Z,100697.86
2023-04-23T07:38:36.837Z,100702.72
2023-04-23T07:39:36.997Z,100707.09
2023-04-23T07:40:37.024Z,100710.73
2023-04-23T07:41:37.637Z,100712.66
2023-04-23T07:42:39.477Z,100714.61
2023-04-23T07:43:39.080Z,100716.23
2023-04-23T07:44:39.673Z,100717.39
2023-04-23T07:45:40.411Z,100717.59
2023-04-23T07:46:41.124Z,100717.73
2023-04-23T07:46:50.980Z,100717.17
2023-04-23T07:47:51.880Z,100716.88
2023-04-23T07:48:52.798Z,100715.74
2023-04-23T07:49:53.456Z,100715.09
2023-04-23T07:50:53.997Z,100713.95
2023-04-23T07:51:54.769Z,100712.17
2023-04-23T07:52:55.682Z,100711.01
2023-04-23T07:53:56.109Z,100710.11
2023-04-23T07:54:56.688Z,100708.55
2023-04-23T07:55:57.424Z,100706.79
2023-04-23T07:56:59.086Z,100704.59
2023-04-23T07:57:09.236Z,100702.88
2023-04-23T07:58:09.963Z,100700.69
2023-04-23T07:59:10.123Z,100699.04
2023-04-23T08:00:10.700Z,100697.44
2023-04-23T08:01:10.992Z,100696.50
2023-04-23T08:02:11.965Z,100695.72
2023-04-23T08:03:12.855Z,100694.67
2023-04-23T08:04:13.618Z,100692.88
2023-04-23T08:05:14.059Z,100691.55
2023-04-23T08:06:14.730Z,100689.53
2023-04-23T08:07:15.675Z,100688.48
2023-04-23T08:08:16.004Z,100686.78
2023-04-23T08:09:16.632Z,100685.70
2023-04-23T08:09:25.302Z,100684.09
2023-04-23T08:10:26.022Z,100683.42
2023-04-23T08:11:27.487Z,100682.52
2023-04-23T08:12:27.253Z,100681.75
2023-04-23T08:13:27.340Z,100680.84
2023-04-23T08:14:27.717Z,100680.15
2023-04-23T08:15:28.771Z,100678.98
2023-04-23T08:16:30.819Z,100677.77
2023-04-23T08:17:30.146Z,100676.89
2023-04-23T08:18:30.233Z,100676.52
2023-04-23T08:19:30.828Z,100676.25
2023-04-23T08:20:31.508Z,100676.47
2023-04-23T08:20:43.198Z,100675.88
2023-04-23T08:21:43.411Z,100675.89
2023-04-23T08:22:43.572Z,100675.62
2023-04-23T08:23:43.774Z,100675.05
2023-04-23T08:24:44.448Z,100674.64
2023-04-23T08:25:45.097Z,100674.36
2023-04-23T08:26:45.133Z,100673.72
2023-04-23T08:27:45.894Z,100673.52
2023-04-23T08:28:46.580Z,100673.23
2023-04-23T08:29:47.262Z,100672.65
2023-04-23T08:30:47.971Z,100672.45
2023-04-23T08:31:47.959Z,100672.22
2023-04-23T08:32:48.868Z,100672.14
2023-04-23T08:32:57.076Z,100672.06
2023-04-23T08:33:57.752Z,100671.91
2023-04-23T08:34:58.545Z,100672.16
2023-04-23T08:35:59.226Z,100672.73
2023-04-23T08:36:59.555Z,100672.78
2023-04-23T08:38:00.199Z,100672.89
2023-04-23T08:39:00.531Z,100672.86
2023-04-23T08:40:01.197Z,100672.40
2023-04-23T08:41:01.349Z,100672.86
2023-04-23T08:42:02.011Z,100673.52
2023-04-23T08:43:02.667Z,100673.87
2023-04-23T08:44:03.285Z,100674.64
2023-04-23T08:45:03.367Z,100674.73
2023-04-23T08:46:04.234Z,100674.98
2023-04-23T08:46:12.769Z,100675.45
2023-04-23T08:47:12.814Z,100675.27
2023-04-23T08:48:13.693Z,100675.17
2023-04-23T08:49:14.248Z,100675.10
2023-04-23T08:50:14.303Z,100675.34
2023-04-23T08:51:14.961Z,100675.01
2023-04-23T08:52:16.619Z,100674.72
2023-04-23T08:53:16.673Z,100674.56
2023-04-23T08:54:16.916Z,100674.07
2023-04-23T08:55:17.667Z,100673.50
2023-04-23T08:56:18.243Z,100672.19
2023-04-23T08:57:18.922Z,100671.63
2023-04-23T08:57:27.645Z,100670.34
2023-04-23T08:58:28.402Z,100669.48
2023-04-23T08:59:28.401Z,100669.14
2023-04-23T09:00:30.020Z,100668.63
2023-04-23T09:01:29.623Z,100667.95
2023-04-23T09:02:30.305Z,100668.00
2023-04-23T09:03:30.579Z,100667.34
2023-04-23T09:04:31.091Z,100667.75
2023-04-23T09:05:31.744Z,100667.84
2023-04-23T09:06:32.341Z,100667.42
2023-04-23T09:07:32.693Z,100667.75
2023-04-23T09:08:32.693Z,100668.23
2023-04-23T09:09:32.969Z,100668.11
2023-04-23T09:09:42.271Z,100635.92
2023-04-23T09:10:42.686Z,100638.37
2023-04-23T09:11:42.854Z,100640.70
2023-04-23T09:12:43.584Z,100642.49
2023-04-23T09:13:44.397Z,100644.45
2023-04-23T09:14:45.807Z,100646.16
2023-04-23T09:15:46.457Z,100646.89
2023-04-23T09:16:47.354Z,100648.17
2023-04-23T09:17:47.212Z,100648.67
2023-04-23T09:18:47.982Z,100649.75
2023-04-23T09:19:03.541Z,100612.26
2023-04-23T09:20:03.969Z,100616.70
2023-04-23T09:21:04.935Z,100620.60
2023-04-23T09:22:04.943Z,100624.45
2023-04-23T09:23:05.801Z,100627.55
2023-04-23T09:24:06.327Z,100630.97
2023-04-23T09:25:06.962Z,100633.72
2023-04-23T09:26:07.983Z,100636.16
2023-04-23T09:27:08.879Z,100638.03
2023-04-23T09:28:09.009Z,100640.00
2023-04-23T09:29:09.136Z,100641.75
2023-04-23T09:30:10.068Z,100643.07
2023-04-23T09:31:10.909Z,100643.95
2023-04-23T09:32:11.937Z,100644.58
2023-04-23T09:33:12.718Z,100645.12
2023-04-23T09:34:13.470Z,100646.18
2023-04-23T09:35:14.547Z,100646.69
2023-04-23T09:36:14.443Z,100647.29
2023-04-23T09:36:25.774Z,100648.22
2023-04-23T09:37:25.650Z,100648.84
2023-04-23T09:38:26.498Z,100649.63
2023-04-23T09:39:27.325Z,100649.70
2023-04-23T09:40:28.208Z,100650.50
2023-04-23T09:41:29.068Z,100650.89
2023-04-23T09:42:29.968Z,100651.78
2023-04-23T09:43:31.134Z,100651.86
2023-04-23T09:44:32.048Z,100652.28
2023-04-23T09:45:32.021Z,100652.91
2023-04-23T09:46:32.604Z,100653.58
2023-04-23T09:47:33.578Z,100654.51
2023-04-23T09:48:34.356Z,100655.49
2023-04-23T09:49:34.498Z,100656.01
2023-04-23T09:50:35.406Z,100656.09
2023-04-23T09:51:37.330Z,100657.19
2023-04-23T09:52:36.472Z,100658.22
2023-04-23T09:53:39.154Z,100658.17
2023-04-23T09:54:37.505Z,100657.67
2023-04-23T09:58:28.349Z,100657.66
2023-04-23T09:59:39.602Z,100656.83
2023-04-23T10:00:33.201Z,100656.97
2023-04-23T10:01:29.035Z,100656.80
2023-04-23T10:02:29.036Z,100656.61
2023-04-23T10:03:29.945Z,100656.91
2023-04-23T10:04:30.026Z,100657.25
2023-04-23T10:07:32.416Z,100658.30
2023-04-23T10:08:34.605Z,100658.47
2023-04-23T10:09:33.497Z,100658.94
2023-04-23T10:10:36.349Z,100658.94
2023-04-23T10:11:35.120Z,100659.30
2023-04-23T10:12:52.318Z,100659.56
2023-04-23T10:12:55.226Z,100660.33
2023-04-23T10:13:53.505Z,100660.40
2023-04-23T10:14:54.145Z,100660.65
2023-04-23T10:15:56.830Z,100661.43
2023-04-23T10:16:55.196Z,100661.75
2023-04-23T10:17:55.914Z,100661.75
2023-04-23T10:18:56.102Z,100662.41
2023-04-23T10:19:56.915Z,100662.52
2023-04-23T10:20:58.769Z,100662.72
2023-04-23T10:22:05.136Z,100662.87
2023-04-23T10:22:57.979Z,100663.38
2023-04-23T10:23:58.902Z,100664.09
2023-04-23T10:24:58.989Z,100664.70
2023-04-23T10:25:59.148Z,100664.48
2023-04-23T10:27:01.974Z,100664.78
2023-04-23T10:28:00.968Z,100665.20
2023-04-23T10:29:01.859Z,100665.48
2023-04-23T10:30:05.978Z,100666.31
2023-04-23T10:31:06.390Z,100666.59
2023-04-23T10:32:04.334Z,100667.86
2023-04-23T10:34:22.390Z,100640.25
2023-04-23T10:35:18.428Z,100642.38
2023-04-23T10:36:19.327Z,100644.91
2023-04-23T10:37:20.284Z,100647.05
2023-04-23T10:38:20.370Z,100648.96
2023-04-23T10:39:29.709Z,100650.01
2023-04-23T10:40:24.157Z,100651.20
2023-04-23T10:41:24.749Z,100652.09
2023-04-23T10:42:22.765Z,100652.34
2023-04-23T10:43:23.367Z,100652.63
2023-04-23T10:44:38.541Z,100652.84
2023-04-23T10:45:25.821Z,100653.09
2023-04-23T10:46:25.260Z,100652.95
2023-04-23T10:47:26.138Z,100652.88
2023-04-23T10:48:26.926Z,100652.64
2023-04-23T10:49:30.670Z,100652.30
2023-04-23T10:50:28.097Z,100651.78
2023-04-23T10:52:10.051Z,100651.30
2023-04-23T10:52:30.928Z,100650.64
2023-04-23T10:53:33.047Z,100650.08
2023-04-23T10:54:31.964Z,100649.69